Time;durP1;ratioP1;P1;durP2;ratioP2;P2;SDS_P1;SDS_P2;PMS_P1;PMS_P2;Temp;Humidity;BMP_temperature;BMP_pressure;BME280_temperature;BME280_humidity;BME280_pressure;Samples;Min_cycle;Max_cycle;Signal;HPM_P1;HPM_P2
2021/06/19 10:47:02;;;;;;;4.72;2.45;;;;;;;27.51;42.75;101146.47;5109391;27;20459;-60
2021/06/19 10:49:31;;;;;;;6.38;2.65;;;;;;;27.46;42.98;101137.22;5105326;28;20488;-55
2021/06/19 10:52:38;;;;;;;2.70;2.50;;;;;;;27.37;42.71;101145.22;5100453;28;20040;-54
2021/06/19 10:55:10;;;;;;;4.80;2.50;;;;;;;27.34;43.21;101142.84;5088299;28;20044;-51
2021/06/19 10:57:55;;;;;;;4.13;3.00;;;;;;;27.48;42.45;101133.41;5092756;28;20036;-44
2021/06/19 11:00:37;;;;;;;5.35;2.90;;;;;;;27.61;41.84;101144.50;5103172;28;20043;-45
2021/06/19 11:03:38;;;;;;;6.65;3.08;;;;;;;27.76;42.66;101131.28;4884324;28;2066176;-44
2021/06/19 11:06:16;;;;;;;4.40;2.85;;;;;;;27.81;41.29;101135.16;4989156;28;56164;-46
2021/06/19 11:08:57;;;;;;;3.25;2.70;;;;;;;28.19;42.03;101130.22;5043204;28;20052;-41
2021/06/19 11:15:08;;;;;;;6.32;2.72;;;;;;;28.35;42.27;101131.06;5024886;27;20433;-55
2021/06/19 11:17:33;;;;;;;0.10;0.10;;;;;;;28.52;41.21;101136.44;5043689;28;20083;-47
2021/06/19 11:20:08;;;;;;;0.00;0.00;;;;;;;28.37;41.89;101122.84;5004281;28;20611;-46
2021/06/19 11:22:40;;;;;;;0.10;0.10;;;;;;;28.24;42.60;101117.16;5058244;28;20043;-52
2021/06/19 11:25:28;;;;;;;0.10;0.10;;;;;;;28.17;43.17;101116.13;5037801;28;20060;-58
2021/06/19 11:27:55;;;;;;;0.20;0.20;;;;;;;28.12;43.29;101121.16;5056605;28;20136;-48
2021/06/19 11:30:33;;;;;;;0.10;0.10;;;;;;;28.10;43.73;101115.97;5067864;28;20053;-48
2021/06/19 11:33:39;;;;;;;0.55;0.20;;;;;;;28.12;43.71;101102.34;5060984;28;20161;-50
2021/06/19 11:36:04;;;;;;;0.10;0.10;;;;;;;28.09;44.17;101113.41;5067402;28;20052;-48
2021/06/19 11:39:03;;;;;;;0.10;0.10;;;;;;;28.12;44.07;101105.88;5067097;28;20049;-47
2021/06/19 11:41:33;;;;;;;0.10;0.10;;;;;;;28.12;44.38;101107.72;5066211;28;20099;-54
2021/06/19 11:43:59;;;;;;;0.10;0.10;;;;;;;28.11;44.34;101104.19;5066470;28;20098;-48
2021/06/19 11:46:25;;;;;;;0.10;0.10;;;;;;;28.11;44.42;101095.31;5068556;28;20041;-49
2021/06/19 11:49:08;;;;;;;0.10;0.10;;;;;;;28.13;44.63;101093.28;5069246;28;20039;-49
2021/06/19 11:51:34;;;;;;;0.10;0.10;;;;;;;28.17;44.43;101083.91;5069447;28;20040;-46
2021/06/19 11:54:15;;;;;;;0.10;0.10;;;;;;;28.20;44.85;101095.16;5064790;28;20497;-47
2021/06/19 11:56:41;;;;;;;0.10;0.10;;;;;;;28.21;44.50;101090.59;5066595;28;20060;-46
2021/06/19 11:59:08;;;;;;;0.10;0.10;;;;;;;28.23;44.87;101088.59;5069201;28;20532;-46
2021/06/19 12:02:16;;;;;;;0.10;0.10;;;;;;;28.24;44.89;101080.34;5059764;28;20170;-53
2021/06/19 12:05:25;;;;;;;0.10;0.10;;;;;;;28.26;44.70;101083.72;5061616;28;20140;-48
2021/06/19 12:07:51;;;;;;;0.05;0.05;;;;;;;28.27;44.67;101071.94;5067544;28;20104;-47
2021/06/19 12:10:23;;;;;;;0.10;0.10;;;;;;;28.29;44.95;101067.25;5069037;28;20064;-47
2021/06/19 12:13:04;;;;;;;0.00;0.00;;;;;;;28.33;44.91;101067.75;5068498;28;20498;-48
2021/06/19 12:24:38;;;;;;;0.10;0.10;;;;;;;28.43;44.71;101060.38;5066022;28;20048;-52
2021/06/19 12:27:09;;;;;;;0.10;0.10;;;;;;;28.44;44.88;101064.72;5048930;28;20033;-54
2021/06/19 12:29:40;;;;;;;0.10;0.10;;;;;;;28.46;44.73;101062.72;5054813;28;20457;-53
2021/06/19 12:32:19;;;;;;;0.10;0.10;;;;;;;28.49;45.02;101064.22;5051483;28;20049;-51
2021/06/19 12:34:45;;;;;;;0.10;0.10;;;;;;;28.51;45.02;101064.88;5052978;28;20044;-51
2021/06/19 12:37:11;;;;;;;0.10;0.10;;;;;;;28.52;44.75;101062.03;5035151;28;20045;-49
2021/06/19 12:39:37;;;;;;;0.20;0.20;;;;;;;28.53;44.94;101058.34;5052860;28;20044;-50
2021/06/19 12:42:03;;;;;;;0.10;0.10;;;;;;;28.55;44.81;101063.53;5051532;28;20115;-50
2021/06/19 12:44:28;;;;;;;0.10;0.10;;;;;;;28.54;44.92;101060.00;5052635;28;20573;-52
2021/06/19 12:47:13;;;;;;;0.20;0.20;;;;;;;28.58;45.09;101057.81;5054813;28;20045;-54
2021/06/19 12:49:55;;;;;;;0.08;0.08;;;;;;;28.59;45.05;101052.28;5055565;28;20047;-54
2021/06/19 12:52:21;;;;;;;0.10;0.10;;;;;;;28.60;44.95;101045.88;5055206;28;20048;-50
2021/06/19 12:54:46;;;;;;;0.10;0.10;;;;;;;28.61;44.91;101055.63;5053726;28;20045;-52
2021/06/19 12:57:16;;;;;;;0.10;0.10;;;;;;;28.63;44.87;101044.72;5055158;28;20155;-51
2021/06/19 12:59:48;;;;;;;0.10;0.10;;;;;;;28.63;45.29;101042.03;5055289;28;20496;-53
2021/06/19 13:02:14;;;;;;;0.10;0.10;;;;;;;28.63;44.97;101053.59;5055016;28;20049;-54
2021/06/19 13:04:39;;;;;;;0.10;0.10;;;;;;;28.65;44.96;101046.22;5054644;28;20131;-49
2021/06/19 13:07:16;;;;;;;0.10;0.10;;;;;;;28.65;45.25;101035.47;5055168;28;20589;-51
2021/06/19 13:09:47;;;;;;;0.10;0.10;;;;;;;28.68;44.93;101035.16;5054696;28;20049;-55
2021/06/19 13:12:15;;;;;;;1.08;1.08;;;;;;;28.70;45.22;101033.09;5055130;28;20045;-48
2021/06/19 13:14:41;;;;;;;0.10;0.10;;;;;;;28.71;44.83;101033.94;5053129;28;20053;-51
2021/06/19 13:17:14;;;;;;;0.10;0.10;;;;;;;28.72;44.83;101025.72;5053332;28;20044;-55
2021/06/19 13:19:41;;;;;;;0.10;0.10;;;;;;;28.73;44.83;101027.38;5054878;28;20490;-50
2021/06/19 13:22:06;;;;;;;0.10;0.10;;;;;;;28.75;45.14;101030.75;5054250;28;20118;-53
2021/06/19 13:24:33;;;;;;;0.10;0.10;;;;;;;28.78;44.71;101016.97;5054196;28;20468;-49
2021/06/19 13:27:10;;;;;;;0.10;0.10;;;;;;;28.80;44.89;101020.31;5052540;28;20569;-53
2021/06/19 13:29:36;;;;;;;0.00;0.00;;;;;;;28.82;44.86;101018.31;5051093;28;20049;-51
2021/06/19 13:32:02;;;;;;;0.10;0.10;;;;;;;28.85;45.04;101014.41;5054387;28;20123;-51
2021/06/19 13:34:28;;;;;;;0.10;0.10;;;;;;;28.85;44.86;101015.25;5054130;28;20131;-56
2021/06/19 13:37:06;;;;;;;0.10;0.10;;;;;;;28.89;44.69;101008.50;5053410;28;20128;-52
2021/06/19 13:39:33;;;;;;;0.10;0.10;;;;;;;28.92;44.97;101000.13;5054616;28;20139;-53
2021/06/19 13:42:11;;;;;;;0.10;0.10;;;;;;;28.94;45.00;100997.22;5054158;28;20409;-51
2021/06/19 13:44:38;;;;;;;0.05;0.05;;;;;;;28.96;44.75;101000.56;5043908;28;20604;-52
2021/06/19 13:47:06;;;;;;;0.10;0.10;;;;;;;28.95;44.96;100999.75;5048192;28;20034;-56
2021/06/19 13:49:31;;;;;;;0.10;0.10;;;;;;;28.94;44.98;100995.38;5033405;28;20060;-53
2021/06/19 13:51:58;;;;;;;0.00;0.00;;;;;;;28.98;44.58;100989.66;5031577;28;20130;-50
2021/06/19 13:54:25;;;;;;;0.00;0.00;;;;;;;29.00;44.71;100998.38;5035115;28;20048;-54
2021/06/19 13:56:50;;;;;;;0.10;0.10;;;;;;;29.03;44.67;100987.25;5051464;28;20079;-50
2021/06/19 13:59:16;;;;;;;0.32;0.32;;;;;;;29.05;44.50;100987.94;5053677;28;20045;-54
2021/06/19 14:01:42;;;;;;;0.10;0.10;;;;;;;29.06;44.55;100978.88;5052910;28;20036;-50
2021/06/19 14:04:09;;;;;;;0.10;0.10;;;;;;;29.07;44.62;100975.13;5052913;28;20029;-57
2021/06/19 14:06:37;;;;;;;0.10;0.10;;;;;;;29.09;44.57;100975.81;5045569;28;20499;-57
2021/06/19 14:09:24;;;;;;;0.52;0.52;;;;;;;29.09;44.63;100982.00;5015968;28;20045;-55
2021/06/19 14:12:30;;;;;;;0.17;0.17;;;;;;;29.11;44.48;100971.94;5037777;28;20044;-60
2021/06/19 14:14:56;;;;;;;0.40;0.40;;;;;;;29.14;44.71;100976.13;5016418;28;20099;-59
2021/06/19 14:17:26;;;;;;;0.10;0.10;;;;;;;29.10;44.90;100969.41;5049233;28;20057;-59
2021/06/19 14:19:54;;;;;;;0.20;0.20;;;;;;;29.09;44.47;100973.94;5043509;28;20064;-59
2021/06/19 14:22:19;;;;;;;0.10;0.10;;;;;;;29.11;44.55;100976.47;5047536;28;20037;-58
2021/06/19 14:24:47;;;;;;;0.10;0.10;;;;;;;29.10;44.85;100969.41;5043217;28;20045;-59
2021/06/19 14:27:20;;;;;;;0.10;0.10;;;;;;;29.11;44.65;100973.78;5042082;28;20060;-55
2021/06/19 14:29:46;;;;;;;0.00;0.00;;;;;;;29.12;44.73;100978.16;5030495;28;20045;-58
2021/06/19 14:32:11;;;;;;;0.00;0.00;;;;;;;29.12;44.84;100979.00;5031353;28;20041;-55
2021/06/19 14:34:38;;;;;;;0.10;0.10;;;;;;;29.14;44.93;100973.44;5034072;28;20111;-55
2021/06/19 14:37:04;;;;;;;0.30;0.30;;;;;;;29.15;44.68;100972.44;5033822;28;20041;-57
2021/06/19 14:39:29;;;;;;;0.10;0.10;;;;;;;29.14;44.92;100971.59;5033706;28;20045;-55
2021/06/19 14:41:55;;;;;;;0.10;0.10;;;;;;;29.16;44.67;100979.47;5032837;28;20096;-55
2021/06/19 14:44:21;;;;;;;0.00;0.00;;;;;;;29.18;44.58;100966.69;5037442;28;20033;-55
2021/06/19 14:46:53;;;;;;;0.10;0.10;;;;;;;29.21;44.97;100969.84;5050957;28;20057;-53
2021/06/19 14:49:19;;;;;;;0.10;0.10;;;;;;;29.23;44.72;100970.50;5037071;28;20426;-46
2021/06/19 14:51:44;;;;;;;0.00;0.00;;;;;;;29.28;44.45;100967.34;5041773;28;20037;-50
2021/06/19 14:54:10;;;;;;;0.00;0.00;;;;;;;29.31;44.35;100961.59;5031803;28;20052;-46
2021/06/19 14:56:38;;;;;;;0.10;0.10;;;;;;;29.33;44.67;100963.06;5032008;28;20037;-46
2021/06/19 14:59:03;;;;;;;0.00;0.00;;;;;;;29.36;44.35;100967.25;5032154;28;20528;-47
2021/06/19 15:01:30;;;;;;;0.38;0.28;;;;;;;29.38;44.33;100967.94;5031953;28;20045;-52
2021/06/19 15:03:56;;;;;;;0.10;0.10;;;;;;;29.40;44.45;100960.50;5029728;28;20044;-48
2021/06/19 15:06:21;;;;;;;0.00;0.00;;;;;;;29.42;44.53;100961.16;5045284;28;20052;-54
2021/06/19 15:08:47;;;;;;;0.08;0.08;;;;;;;29.43;44.22;100949.38;5031048;28;20045;-46
2021/06/19 15:11:13;;;;;;;0.10;0.10;;;;;;;29.43;44.18;100949.38;5031945;28;20410;-47
2021/06/19 15:13:38;;;;;;;0.10;0.10;;;;;;;29.44;44.15;100951.91;5031597;28;20099;-47
2021/06/19 15:16:04;;;;;;;0.10;0.10;;;;;;;29.45;44.19;100947.34;5031482;28;20510;-49
2021/06/19 15:18:30;;;;;;;0.28;0.28;;;;;;;29.46;44.42;100949.03;5031045;28;20041;-46
2021/06/19 15:20:56;;;;;;;0.08;0.08;;;;;;;29.50;44.23;100954.88;5035037;28;20064;-47
2021/06/19 15:23:21;;;;;;;0.22;0.20;;;;;;;29.55;44.21;100947.94;5046647;28;20037;-47
2021/06/19 15:25:47;;;;;;;0.20;0.20;;;;;;;29.60;44.27;100953.63;5038711;28;20049;-42
2021/06/19 15:28:13;;;;;;;0.10;0.10;;;;;;;29.65;44.19;100948.53;5047529;28;20090;-47
2021/06/19 15:30:39;;;;;;;0.20;0.20;;;;;;;29.66;44.05;100950.22;5049120;28;20589;-45
2021/06/19 15:33:05;;;;;;;0.20;0.20;;;;;;;29.66;44.25;100950.22;5049297;28;20052;-45
2021/06/19 15:35:30;;;;;;;0.00;0.00;;;;;;;29.66;44.09;100955.59;5049398;28;20571;-45
2021/06/19 15:37:56;;;;;;;0.10;0.10;;;;;;;29.65;44.20;100948.53;5049389;28;20121;-46
2021/06/19 15:40:21;;;;;;;0.20;0.20;;;;;;;29.69;44.29;100949.84;5048928;28;20033;-46
2021/06/19 15:42:48;;;;;;;0.10;0.10;;;;;;;29.71;44.08;100944.31;5049530;28;20056;-46
2021/06/19 15:45:14;;;;;;;0.30;0.30;;;;;;;29.70;44.08;100945.31;5051614;28;20068;-45
2021/06/19 15:47:40;;;;;;;0.10;0.10;;;;;;;29.69;44.07;100940.94;5051614;28;20067;-46
2021/06/19 15:50:09;;;;;;;0.00;0.00;;;;;;;29.69;44.14;100939.09;5052079;28;20040;-51
2021/06/19 15:52:35;;;;;;;0.10;0.10;;;;;;;29.72;44.32;100944.09;5042828;28;20045;-45
2021/06/19 15:55:01;;;;;;;0.13;0.13;;;;;;;29.75;44.04;100941.03;5042660;28;20091;-45
2021/06/19 15:57:27;;;;;;;0.10;0.10;;;;;;;29.75;44.08;100943.75;5031734;28;20045;-45
2021/06/19 15:59:52;;;;;;;0.10;0.10;;;;;;;29.77;44.06;100935.50;5041749;28;20033;-48
2021/06/19 16:02:18;;;;;;;0.00;0.00;;;;;;;29.76;44.00;100934.66;5051390;28;20487;-47
2021/06/19 16:04:46;;;;;;;0.10;0.10;;;;;;;29.79;44.25;100936.97;5053298;28;20071;-46
2021/06/19 16:07:11;;;;;;;0.20;0.20;;;;;;;29.79;44.06;100945.06;5053911;28;20072;-46
2021/06/19 16:09:37;;;;;;;0.10;0.10;;;;;;;29.76;44.17;100934.66;5054451;28;20044;-47
2021/06/19 16:12:03;;;;;;;0.13;0.13;;;;;;;29.80;44.13;100935.97;5054182;28;20067;-45
2021/06/19 16:14:33;;;;;;;0.13;0.13;;;;;;;29.80;44.08;100941.34;5054051;28;20414;-45
2021/06/19 16:16:58;;;;;;;0.10;0.10;;;;;;;29.83;44.09;100949.09;5053210;28;20041;-49
2021/06/19 16:19:24;;;;;;;0.20;0.20;;;;;;;29.85;44.09;100944.34;5054633;28;20064;-44
2021/06/19 16:21:49;;;;;;;0.10;0.10;;;;;;;29.86;44.34;100942.50;5041900;28;20037;-45
2021/06/19 16:24:17;;;;;;;0.10;0.10;;;;;;;29.85;44.19;100947.06;5035034;28;20052;-46
2021/06/19 16:26:44;;;;;;;0.93;0.88;;;;;;;29.86;44.03;100946.03;5034685;28;20041;-45
2021/06/19 16:29:09;;;;;;;0.15;0.15;;;;;;;29.88;44.21;100948.53;5034467;28;20059;-47
2021/06/19 16:31:35;;;;;;;0.10;0.10;;;;;;;29.80;44.34;100933.28;5034341;28;20503;-45
2021/06/19 16:34:00;;;;;;;0.20;0.20;;;;;;;29.87;44.09;100945.03;5034907;28;20049;-45
2021/06/19 16:36:26;;;;;;;0.10;0.10;;;;;;;29.89;44.14;100947.53;5034548;28;20092;-45
2021/06/19 16:38:52;;;;;;;0.00;0.00;;;;;;;29.89;44.32;100945.69;5034848;28;20045;-45
2021/06/19 16:41:18;;;;;;;0.13;0.13;;;;;;;29.90;44.08;100944.66;5047471;28;20078;-46
2021/06/19 16:43:44;;;;;;;0.10;0.10;;;;;;;29.91;44.33;100940.94;5054758;28;20041;-46
2021/06/19 16:46:09;;;;;;;0.10;0.10;;;;;;;29.92;44.22;100944.47;5054458;28;20131;-45
2021/06/19 16:48:35;;;;;;;0.10;0.10;;;;;;;29.94;44.15;100943.25;5052963;28;20044;-45
2021/06/19 16:51:04;;;;;;;0.10;0.10;;;;;;;29.96;44.17;100943.09;5053359;28;20504;-46
2021/06/19 16:53:32;;;;;;;0.20;0.20;;;;;;;29.96;44.19;100946.63;5053089;28;20052;-45
2021/06/19 16:55:58;;;;;;;0.10;0.10;;;;;;;29.95;44.25;100947.63;5053710;28;20094;-44
2021/06/19 16:58:24;;;;;;;1.95;0.35;;;;;;;29.89;44.29;100929.50;5052957;28;20033;-47
2021/06/19 17:00:49;;;;;;;0.20;0.20;;;;;;;29.96;44.44;100948.47;5053283;28;20116;-45
2021/06/19 17:03:15;;;;;;;0.13;0.13;;;;;;;29.96;44.41;100941.22;5053077;28;20037;-47
2021/06/19 17:05:41;;;;;;;0.45;0.45;;;;;;;29.97;44.22;100932.09;5053134;28;20131;-45
2021/06/19 17:08:06;;;;;;;0.30;0.30;;;;;;;29.96;44.33;100941.22;5047788;28;20127;-46
2021/06/19 17:10:32;;;;;;;0.20;0.20;;;;;;;29.94;44.46;100940.56;5053063;28;20493;-45
2021/06/19 17:12:58;;;;;;;0.00;0.00;;;;;;;29.94;44.64;100937.88;5052484;28;20060;-45
2021/06/19 17:15:23;;;;;;;0.00;0.00;;;;;;;29.95;44.74;100936.84;5052780;28;20040;-45
2021/06/19 17:17:50;;;;;;;0.00;0.00;;;;;;;29.93;44.58;100933.53;5052703;28;20498;-47
2021/06/19 17:20:15;;;;;;;0.20;0.20;;;;;;;29.91;44.62;100935.53;5052741;28;20166;-46
2021/06/19 17:22:41;;;;;;;0.80;0.80;;;;;;;29.90;44.93;100935.75;5052941;28;20063;-46
2021/06/19 17:25:07;;;;;;;0.10;0.10;;;;;;;29.87;44.70;100930.72;5052576;28;20048;-45
2021/06/19 17:27:34;;;;;;;0.45;0.45;;;;;;;29.85;44.73;100938.97;5052642;28;20040;-47
2021/06/19 17:29:59;;;;;;;0.10;0.10;;;;;;;29.85;45.04;100933.59;5034491;28;20533;-45
2021/06/19 17:32:25;;;;;;;0.00;0.00;;;;;;;29.85;44.87;100940.81;5053053;28;20436;-43
2021/06/19 17:34:50;;;;;;;1.52;0.73;;;;;;;29.83;44.99;100935.63;5053075;28;20410;-45
2021/06/19 17:37:16;;;;;;;1.75;0.75;;;;;;;29.80;45.11;100938.66;5053136;28;20536;-45
2021/06/19 17:39:42;;;;;;;0.20;0.20;;;;;;;29.75;45.07;100935.66;5053001;28;20048;-46
2021/06/19 17:42:08;;;;;;;0.95;0.95;;;;;;;29.74;45.27;100930.47;5051637;28;20055;-45
2021/06/19 17:44:34;;;;;;;1.00;1.00;;;;;;;29.71;45.11;100942.41;5053010;28;20036;-45
2021/06/19 17:47:00;;;;;;;0.28;0.28;;;;;;;29.69;45.43;100939.09;5052995;28;20413;-45
2021/06/19 17:49:25;;;;;;;0.47;0.47;;;;;;;29.67;45.32;100941.13;5052606;28;20029;-46
2021/06/19 17:51:51;;;;;;;0.73;0.73;;;;;;;29.64;45.34;100941.50;5052733;28;20056;-45
2021/06/19 17:54:17;;;;;;;0.40;0.40;;;;;;;29.61;45.63;100944.56;5052950;28;20055;-45
2021/06/19 17:56:42;;;;;;;0.22;0.22;;;;;;;29.59;45.66;100949.25;5052801;28;20044;-46
2021/06/19 17:59:08;;;;;;;0.32;0.32;;;;;;;29.55;45.56;100945.25;5039340;28;20044;-45
2021/06/19 18:01:33;;;;;;;0.73;0.73;;;;;;;29.52;45.68;100939.38;5034651;28;20040;-45
2021/06/19 18:04:00;;;;;;;8.07;1.38;;;;;;;29.51;45.65;100945.81;5033765;28;20041;-46
2021/06/19 18:06:25;;;;;;;0.25;0.25;;;;;;;29.48;45.84;100952.41;5033596;28;20530;-45
2021/06/19 18:08:52;;;;;;;0.45;0.45;;;;;;;29.45;45.81;100942.78;5033460;28;20048;-45
2021/06/19 18:11:18;;;;;;;0.60;0.60;;;;;;;29.40;46.05;100944.38;5033957;28;20117;-46
2021/06/19 18:13:44;;;;;;;0.25;0.25;;;;;;;29.37;45.82;100944.72;5036550;28;20063;-46
2021/06/19 18:16:09;;;;;;;0.80;0.80;;;;;;;29.33;46.13;100946.09;5052352;28;20414;-48
2021/06/19 18:18:37;;;;;;;0.60;0.47;;;;;;;29.29;46.18;100945.59;5050173;28;20049;-47
2021/06/19 18:21:03;;;;;;;0.68;0.68;;;;;;;29.25;46.29;100940.78;5046964;28;20442;-49
2021/06/19 18:23:29;;;;;;;2.13;1.15;;;;;;;29.22;46.14;100941.09;5040461;28;20033;-45
2021/06/19 18:25:56;;;;;;;0.30;0.30;;;;;;;29.19;46.35;100936.09;5038338;28;20044;-46
2021/06/19 18:28:21;;;;;;;0.43;0.43;;;;;;;29.15;46.38;100938.28;5037678;28;20037;-45
2021/06/19 18:30:47;;;;;;;0.90;0.90;;;;;;;29.12;46.54;100940.50;5040869;28;20505;-46
2021/06/19 18:33:13;;;;;;;0.35;0.35;;;;;;;29.08;46.62;100949.94;5051212;28;20122;-60
2021/06/19 18:35:39;;;;;;;0.30;0.30;;;;;;;29.08;46.44;100941.84;5053496;28;20036;-62
2021/06/19 18:38:05;;;;;;;0.10;0.10;;;;;;;29.09;46.49;100946.22;5051209;28;20451;-61
2021/06/19 18:40:31;;;;;;;0.70;0.65;;;;;;;29.09;46.26;100940.84;5036171;28;20041;-61
2021/06/19 18:42:57;;;;;;;0.20;0.20;;;;;;;29.10;46.49;100953.25;5035507;28;20041;-61
2021/06/19 18:45:23;;;;;;;0.05;0.05;;;;;;;29.09;46.51;100940.84;5053052;28;20037;-61
2021/06/19 18:47:48;;;;;;;0.15;0.15;;;;;;;29.08;46.22;100947.22;5038496;28;20057;-60
2021/06/19 18:50:14;;;;;;;0.20;0.20;;;;;;;29.07;46.47;100948.25;5033197;28;20033;-61
2021/06/19 18:52:40;;;;;;;0.20;0.20;;;;;;;29.04;46.49;100943.22;5043341;28;20037;-61
2021/06/19 18:55:07;;;;;;;1.00;1.00;;;;;;;29.02;46.42;100940.72;5048686;28;20040;-67
2021/06/19 18:57:33;;;;;;;0.20;0.20;;;;;;;29.01;46.39;100954.34;5052452;28;20082;-51
2021/06/19 18:59:59;;;;;;;0.73;0.70;;;;;;;28.96;46.45;100955.69;5047892;28;20444;-59
2021/06/19 19:02:24;;;;;;;0.40;0.40;;;;;;;28.91;46.87;100947.31;5041330;28;20060;-57
2021/06/19 19:04:57;;;;;;;0.30;0.30;;;;;;;28.90;46.77;100942.94;5052738;28;20068;-62
2021/06/19 19:07:23;;;;;;;0.68;0.68;;;;;;;28.89;46.78;100946.66;5052870;28;20045;-60
2021/06/19 19:09:49;;;;;;;1.35;0.45;;;;;;;28.89;46.66;100943.94;5052486;28;20037;-60
2021/06/19 19:12:14;;;;;;;0.28;0.28;;;;;;;28.88;46.79;100944.16;5052429;28;20036;-60
2021/06/19 19:14:41;;;;;;;0.60;0.60;;;;;;;28.85;46.93;100939.97;5052497;28;20053;-61
2021/06/19 19:17:06;;;;;;;0.60;0.60;;;;;;;28.84;46.71;100934.75;5052674;28;20032;-61
2021/06/19 19:19:33;;;;;;;0.30;0.30;;;;;;;28.82;46.97;100934.94;5034602;28;20419;-62
2021/06/19 19:21:58;;;;;;;0.60;0.60;;;;;;;28.78;46.93;100928.22;5045780;28;20045;-53
2021/06/19 19:24:24;;;;;;;0.70;0.70;;;;;;;28.76;47.07;100935.63;5050829;28;20524;-60
2021/06/19 19:26:50;;;;;;;0.32;0.32;;;;;;;28.75;47.14;100939.34;5045786;28;20048;-57
2021/06/19 19:29:15;;;;;;;0.75;0.75;;;;;;;28.75;46.88;100938.50;5051561;28;20047;-58
2021/06/19 19:31:42;;;;;;;0.22;0.22;;;;;;;28.74;47.10;100940.34;5050265;28;20033;-58
2021/06/19 19:34:07;;;;;;;0.50;0.50;;;;;;;28.73;47.02;100941.34;5051372;28;20041;-59
2021/06/19 19:36:33;;;;;;;2.30;0.73;;;;;;;28.72;46.99;100945.06;5024451;28;20041;-60
2021/06/19 19:38:59;;;;;;;0.30;0.30;;;;;;;28.70;47.00;100946.22;5055527;28;20063;-60
2021/06/19 19:41:24;;;;;;;0.30;0.30;;;;;;;28.67;47.14;100944.72;5054267;28;20045;-60
2021/06/19 19:43:50;;;;;;;0.40;0.40;;;;;;;28.63;47.00;100948.75;5055659;28;20383;-60
2021/06/19 19:46:16;;;;;;;0.30;0.30;;;;;;;28.60;46.89;100948.28;5055608;28;20041;-59
2021/06/19 19:48:41;;;;;;;0.43;0.43;;;;;;;28.57;47.26;100943.22;5055466;28;20037;-60
2021/06/19 19:51:07;;;;;;;0.85;0.85;;;;;;;28.57;47.12;100937.84;5055016;28;20049;-61
2021/06/19 19:53:33;;;;;;;4.57;0.90;;;;;;;28.54;47.18;100941.72;5046705;28;20525;-60
2021/06/19 19:55:59;;;;;;;0.10;0.10;;;;;;;28.50;47.08;100947.66;5042884;28;20050;-60
2021/06/19 19:58:24;;;;;;;0.30;0.30;;;;;;;28.45;47.16;100948.16;5043286;28;20158;-61
2021/06/19 20:00:50;;;;;;;0.30;0.30;;;;;;;28.42;47.34;100948.50;5046856;28;20449;-52
2021/06/19 20:03:22;;;;;;;0.50;0.50;;;;;;;28.44;47.33;100941.09;5054957;28;20044;-56
2021/06/19 20:05:55;;;;;;;0.22;0.22;;;;;;;28.49;46.87;100949.50;5047547;28;20514;-53
2021/06/19 20:08:20;;;;;;;0.40;0.40;;;;;;;28.51;47.21;100952.84;5048211;28;20040;-51
2021/06/19 20:10:46;;;;;;;0.10;0.10;;;;;;;28.52;46.83;100949.13;5051386;28;20036;-48
2021/06/19 20:13:12;;;;;;;0.10;0.10;;;;;;;28.53;46.80;100948.13;5041768;28;20061;-50
2021/06/19 20:15:37;;;;;;;0.10;0.10;;;;;;;28.54;46.95;100939.03;5048143;28;20995;-50
2021/06/19 20:18:03;;;;;;;0.40;0.40;;;;;;;28.52;47.21;100943.75;5053744;28;20044;-54
2021/06/19 20:20:29;;;;;;;0.30;0.22;;;;;;;28.46;47.28;100944.47;5054250;28;20040;-52
2021/06/19 20:22:54;;;;;;;0.20;0.20;;;;;;;28.44;47.23;100958.06;5040533;28;20041;-45
2021/06/19 20:25:21;;;;;;;0.40;0.40;;;;;;;28.43;47.23;100953.72;5053884;28;20064;-46
2021/06/19 20:27:47;;;;;;;0.35;0.35;;;;;;;28.42;47.44;100956.56;5054559;28;20118;-46
2021/06/19 20:30:13;;;;;;;0.22;0.22;;;;;;;28.41;47.13;100957.56;5054432;28;20494;-54
2021/06/19 20:32:39;;;;;;;0.28;0.28;;;;;;;28.40;47.44;100955.91;5053906;28;20410;-50
2021/06/19 20:35:06;;;;;;;0.35;0.35;;;;;;;28.40;47.28;100956.72;5048320;28;20049;-50
2021/06/19 20:37:32;;;;;;;0.15;0.15;;;;;;;28.39;47.29;100955.06;5054334;28;20041;-52
2021/06/19 20:39:58;;;;;;;0.20;0.20;;;;;;;28.44;47.07;100957.22;5054564;28;20052;-47
2021/06/19 20:42:23;;;;;;;0.17;0.17;;;;;;;28.46;47.24;100952.53;5049938;28;20098;-48
2021/06/19 20:44:49;;;;;;;0.10;0.10;;;;;;;28.47;47.13;100958.75;5048912;28;20076;-50
2021/06/19 20:47:15;;;;;;;0.10;0.10;;;;;;;28.47;46.90;100958.75;5050487;28;20045;-57
2021/06/19 20:49:40;;;;;;;0.38;0.35;;;;;;;28.47;46.92;100956.88;5054122;28;20040;-58
2021/06/19 20:52:07;;;;;;;0.10;0.10;;;;;;;28.44;47.17;100951.84;5041954;28;20048;-59
2021/06/19 20:54:35;;;;;;;0.30;0.30;;;;;;;28.38;47.36;100960.59;5043253;28;20073;-57
2021/06/19 20:57:01;;;;;;;0.10;0.10;;;;;;;28.33;47.39;100960.28;5036480;28;20033;-58
2021/06/19 20:59:26;;;;;;;0.30;0.30;;;;;;;28.30;47.14;100961.47;5033926;28;20033;-57
2021/06/19 21:01:52;;;;;;;0.50;0.50;;;;;;;28.29;47.55;100958.94;5033821;28;20033;-59
2021/06/19 21:04:17;;;;;;;0.28;0.28;;;;;;;28.27;47.18;100963.66;5034873;28;20041;-54
2021/06/19 21:06:43;;;;;;;0.10;0.10;;;;;;;28.23;47.20;100954.25;5052874;28;20064;-50
2021/06/19 21:09:10;;;;;;;0.10;0.10;;;;;;;28.19;47.60;100960.97;5052161;28;20803;-53
2021/06/19 21:11:36;;;;;;;0.10;0.10;;;;;;;28.11;47.51;100966.38;5034241;28;20040;-53
2021/06/19 21:14:02;;;;;;;0.10;0.10;;;;;;;28.04;47.51;100962.66;5052013;28;20437;-49
2021/06/19 21:16:29;;;;;;;0.85;0.85;;;;;;;27.98;47.66;100971.41;5044348;28;20045;-51
2021/06/19 21:18:54;;;;;;;0.20;0.20;;;;;;;27.90;47.91;100973.06;5044916;28;20041;-49
2021/06/19 21:21:20;;;;;;;0.20;0.20;;;;;;;27.85;47.90;100970.03;5053322;28;20041;-50
2021/06/19 21:23:45;;;;;;;0.30;0.30;;;;;;;27.74;47.76;100959.66;5054169;28;20395;-49
2021/06/19 21:26:11;;;;;;;0.05;0.05;;;;;;;27.72;47.91;100967.03;5052427;28;20041;-54
2021/06/19 21:28:37;;;;;;;0.17;0.17;;;;;;;27.68;48.14;100963.00;5054764;28;20040;-50
2021/06/19 21:31:03;;;;;;;0.28;0.28;;;;;;;27.64;48.07;100974.25;5045716;28;20065;-50
2021/06/19 21:33:28;;;;;;;0.25;0.25;;;;;;;27.59;48.26;100972.03;5033943;28;20041;-50
2021/06/19 21:35:55;;;;;;;0.17;0.17;;;;;;;27.56;48.33;100971.53;5034112;28;20400;-49
2021/06/19 21:38:21;;;;;;;0.30;0.30;;;;;;;27.52;48.06;100971.03;5034346;28;20087;-49
2021/06/19 21:40:46;;;;;;;2.50;0.25;;;;;;;27.46;48.03;100971.69;5034319;28;20045;-50
2021/06/19 21:43:12;;;;;;;0.13;0.13;;;;;;;27.43;48.12;100972.00;5034253;28;20119;-48
2021/06/19 21:45:39;;;;;;;0.10;0.10;;;;;;;27.39;48.21;100976.00;5050128;28;20048;-48
2021/06/19 21:48:05;;;;;;;0.10;0.10;;;;;;;27.34;48.39;100979.19;5054076;28;20040;-50
2021/06/19 21:50:31;;;;;;;0.10;0.10;;;;;;;27.28;48.15;100969.13;5054605;28;20401;-48
2021/06/19 21:52:57;;;;;;;0.30;0.30;;;;;;;27.24;48.34;100974.97;5053691;28;20045;-52
2021/06/19 21:55:22;;;;;;;0.73;0.73;;;;;;;27.21;48.19;100978.00;5054475;28;20062;-50
2021/06/19 21:57:48;;;;;;;0.10;0.10;;;;;;;27.16;48.53;100974.97;5053123;28;20059;-50
2021/06/19 22:00:25;;;;;;;0.10;0.10;;;;;;;27.12;48.41;100974.47;5053895;28;20039;-48
2021/06/19 22:02:52;;;;;;;0.32;0.32;;;;;;;27.09;48.50;100979.31;5048059;28;20042;-49
2021/06/19 22:05:17;;;;;;;0.20;0.20;;;;;;;27.06;48.23;100979.63;5033471;28;20045;-50
2021/06/19 22:07:43;;;;;;;0.30;0.30;;;;;;;27.02;48.64;100979.13;5033791;28;20120;-48
2021/06/19 22:10:09;;;;;;;0.10;0.10;;;;;;;27.00;48.58;100980.25;5033744;28;20135;-54
2021/06/19 22:12:35;;;;;;;0.20;0.20;;;;;;;26.99;48.44;100983.97;5033688;28;20040;-50
2021/06/19 22:15:00;;;;;;;0.10;0.10;;;;;;;26.97;48.39;100980.59;5035146;28;20061;-49
2021/06/19 22:17:26;;;;;;;0.20;0.20;;;;;;;26.96;48.19;100979.78;5033642;28;20163;-50
2021/06/19 22:19:52;;;;;;;0.10;0.10;;;;;;;26.94;48.36;100973.72;5049639;28;20085;-49
2021/06/19 22:22:17;;;;;;;0.20;0.20;;;;;;;26.94;48.34;100989.81;5053185;28;20430;-51
2021/06/19 22:24:45;;;;;;;1.02;1.02;;;;;;;26.91;48.21;100977.56;5053304;28;20056;-51
2021/06/19 22:27:11;;;;;;;0.28;0.28;;;;;;;26.87;48.35;100970.84;5053356;28;20136;-49